Time;durP1;ratioP1;P1;durP2;ratioP2;P2;SDS_P1;SDS_P2;PMS_P1;PMS_P2;Temp;Humidity;BMP_temperature;BMP_pressure;BME280_temperature;BME280_humidity;BME280_pressure;Samples;Min_cycle;Max_cycle;Signal;HPM_P1;HPM_P2
2023/03/30 00:00:57;;;;;;;;;;;17.20;68.10;;;17.52;41.94;98365.66;4931371;28;113888;-76
2023/03/30 00:03:26;;;;;;;;;;;17.20;67.70;;;17.55;41.89;98356.53;4934415;28;124745;-78
2023/03/30 00:05:57;;;;;;;;;;;17.20;67.80;;;17.57;41.89;98348.59;4932868;28;123733;-76
2023/03/30 00:08:27;;;;;;;;;;;17.20;67.80;;;17.60;41.77;98347.06;4920555;28;114491;-78
2023/03/30 00:11:05;;;;;;;;;;;17.30;67.90;;;17.61;41.56;98349.47;4935780;28;114364;-75
2023/03/30 00:13:35;;;;;;;;;;;17.30;67.90;;;17.63;41.83;98351.91;4936279;28;122832;-78
2023/03/30 00:16:02;;;;;;;;;;;17.30;67.80;;;17.64;41.68;98354.31;4936232;28;123659;-76
2023/03/30 00:18:28;;;;;;;;;;;17.30;67.80;;;17.65;41.85;98347.56;4932231;28;114826;-76
2023/03/30 00:20:57;;;;;;;;;;;17.30;67.80;;;17.69;41.95;98349.59;4920781;28;113045;-77
2023/03/30 00:23:25;;;;;;;;;;;17.30;67.80;;;17.71;41.63;98336.06;4929174;28;126568;-76
2023/03/30 00:25:51;;;;;;;;;;;17.30;67.80;;;17.75;41.87;98336.94;4928963;28;124827;-78
2023/03/30 00:28:17;;;;;;;;;;;17.40;68.00;;;17.77;41.76;98329.78;4923249;28;114004;-76
2023/03/30 00:30:44;;;;;;;;;;;17.40;68.00;;;17.79;41.81;98329.47;4930754;28;113929;-76
2023/03/30 00:33:10;;;;;;;;;;;17.40;68.00;;;17.81;41.76;98329.88;4930731;28;123570;-77
2023/03/30 00:35:38;;;;;;;;;;;17.40;67.90;;;17.82;41.86;98325.94;4931745;28;124177;-76
2023/03/30 00:38:07;;;;;;;;;;;17.50;68.10;;;17.82;41.82;98325.94;4919889;28;113252;-77
2023/03/30 00:40:34;;;;;;;;;;;17.50;68.10;;;17.83;42.03;98319.16;4933785;28;113907;-79
2023/03/30 00:43:05;;;;;;;;;;;17.50;68.10;;;17.86;42.12;98315.59;4931509;28;124881;-76
2023/03/30 00:45:35;;;;;;;;;;;17.50;68.20;;;17.85;42.01;98314.00;4933549;28;123827;-76
2023/03/30 00:48:16;;;;;;;;;;;17.50;68.30;;;17.84;42.14;98309.59;4933000;28;115034;-76
2023/03/30 00:50:50;;;;;;;;;;;17.50;68.40;;;17.84;42.16;98306.81;4932241;28;112857;-78
2023/03/30 00:53:25;;;;;;;;;;;17.50;68.60;;;17.81;42.34;98302.75;4929092;28;124601;-77
2023/03/30 00:55:52;;;;;;;;;;;17.50;68.80;;;17.80;42.28;98301.13;4936221;28;123993;-77
2023/03/30 00:58:20;;;;;;;;;;;17.50;68.90;;;17.77;42.32;98292.66;4919621;28;114249;-76
2023/03/30 01:00:47;;;;;;;;;;;17.40;68.90;;;17.75;42.75;98287.44;4931376;28;114646;-76
2023/03/30 01:03:22;;;;;;;;;;;17.40;69.00;;;17.73;42.83;98292.63;4928935;28;124255;-76
2023/03/30 01:05:50;;;;;;;;;;;17.40;69.20;;;17.70;42.82;98289.75;4926412;28;123954;-76
2023/03/30 01:08:17;;;;;;;;;;;17.40;69.20;;;17.68;42.84;98281.75;4914476;28;113926;-80
2023/03/30 01:10:44;;;;;;;;;;;17.40;69.40;;;17.65;43.17;98283.28;4929935;28;115354;-76
2023/03/30 01:13:12;;;;;;;;;;;17.40;69.60;;;17.65;43.10;98286.09;4932489;28;124241;-76
2023/03/30 01:15:52;;;;;;;;;;;17.30;69.80;;;17.64;43.10;98280.88;4931963;28;123591;-76
2023/03/30 01:18:56;;;;;;;;;;;17.30;69.90;;;17.63;43.26;98273.66;4915483;28;114727;-76
2023/03/30 01:21:44;;;;;;;;;;;17.30;70.00;;;17.61;43.38;98288.00;4933780;28;113021;-76
2023/03/30 01:24:26;;;;;;;;;;;17.30;70.10;;;17.59;43.52;98297.94;4930590;28;124107;-76
2023/03/30 01:27:27;;;;;;;;;;;17.30;70.30;;;17.55;43.73;98302.66;4926330;28;123472;-77
2023/03/30 01:30:21;;;;;;;;;;;17.30;70.50;;;17.49;44.00;98310.53;4933299;28;114059;-76
2023/03/30 01:33:33;;;;;;;;;;;17.30;70.70;;;17.47;44.80;98321.28;4932038;28;114015;-76
2023/03/30 01:36:18;;;;;;;;;;;17.20;71.80;;;17.40;45.46;98316.34;4945974;28;123170;-76
2023/03/30 01:39:02;;;;;;;;;;;17.10;73.10;;;17.38;45.96;98306.72;4930969;28;124129;-76
2023/03/30 01:41:52;;;;;;;;;;;17.10;73.80;;;17.35;46.28;98313.03;4931274;28;114580;-76
2023/03/30 01:44:29;;;;;;;;;;;17.00;74.10;;;17.30;47.14;98288.22;4929646;28;112713;-76
2023/03/30 01:47:18;;;;;;;;;;;17.00;75.50;;;17.26;47.69;98284.56;4929376;28;122929;-76
2023/03/30 01:49:55;;;;;;;;;;;17.00;76.50;;;17.21;48.55;98268.91;4916096;28;124090;-76
2023/03/30 01:52:27;;;;;;;;;;;16.90;77.20;;;17.15;48.81;98301.91;4908217;28;114378;-76
2023/03/30 01:55:03;;;;;;;;;;;16.80;77.70;;;17.11;49.42;98306.59;4910724;28;114709;-76
2023/03/30 01:57:39;;;;;;;;;;;16.80;78.50;;;17.06;49.37;98301.34;4922473;28;123763;-76
2023/03/30 02:00:16;;;;;;;;;;;16.80;78.90;;;17.02;49.45;98300.44;4916127;28;123244;-76
2023/03/30 02:02:48;;;;;;;;;;;16.70;78.80;;;16.97;50.00;98309.09;4908799;28;113454;-76
2023/03/30 02:05:16;;;;;;;;;;;16.70;79.50;;;16.95;50.36;98301.13;4921044;28;114555;-75
2023/03/30 02:07:48;;;;;;;;;;;16.60;80.10;;;16.90;50.30;98306.97;4929964;28;124346;-76
2023/03/30 02:10:16;;;;;;;;;;;16.60;80.20;;;16.89;50.71;98296.97;4924690;28;123763;-76
2023/03/30 02:12:43;;;;;;;;;;;16.60;80.60;;;16.86;50.69;98308.88;4929952;28;114129;-75
2023/03/30 02:15:10;;;;;;;;;;;16.60;80.60;;;16.85;50.68;98301.69;4932673;28;113218;-75
2023/03/30 02:17:37;;;;;;;;;;;16.50;80.70;;;16.85;51.04;98306.47;4938494;28;124148;-76
2023/03/30 02:20:08;;;;;;;;;;;16.50;81.00;;;16.81;50.77;98311.97;4929544;28;124163;-77
2023/03/30 02:22:34;;;;;;;;;;;16.50;81.10;;;16.79;50.80;98325.47;4930055;28;114540;-77
2023/03/30 02:25:01;;;;;;;;;;;16.50;81.00;;;16.81;50.70;98319.53;4928116;28;113717;-76
2023/03/30 02:27:28;;;;;;;;;;;16.50;81.10;;;16.82;50.82;98323.91;4929812;28;124198;-76
2023/03/30 02:29:55;;;;;;;;;;;16.50;81.20;;;16.81;50.90;98333.47;4929912;28;123751;-76
2023/03/30 02:32:27;;;;;;;;;;;16.50;81.20;;;16.81;50.80;98336.25;4931654;28;113428;-76
2023/03/30 02:35:03;;;;;;;;;;;16.50;81.40;;;16.79;50.89;98319.88;4933163;28;112988;-76
2023/03/30 02:37:49;;;;;;;;;;;16.50;81.40;;;16.81;50.97;98319.53;4928779;28;124153;-77
2023/03/30 02:40:29;;;;;;;;;;;16.00;81.10;;;16.78;50.97;98323.84;4929274;28;124559;-76
2023/03/30 02:43:08;;;;;;;;;;;16.40;81.50;;;16.76;50.99;98326.16;4924919;28;115618;-75
2023/03/30 02:46:03;;;;;;;;;;;16.40;81.50;;;16.72;50.46;98323.31;4928855;28;114361;-76
2023/03/30 02:48:32;;;;;;;;;;;16.40;81.60;;;16.76;51.01;98331.75;4929362;28;124615;-77
2023/03/30 02:51:07;;;;;;;;;;;16.40;81.70;;;16.76;51.09;98320.59;4915933;28;125443;-75
2023/03/30 02:54:04;;;;;;;;;;;16.40;82.00;;;16.74;51.31;98304.22;4929604;28;114799;-77
2023/03/30 02:56:37;;;;;;;;;;;16.40;82.10;;;16.75;51.86;98297.47;4931269;28;114256;-75
2023/03/30 02:59:06;;;;;;;;;;;16.40;82.70;;;16.73;52.01;98299.00;4929951;28;124112;-74
2023/03/30 03:01:44;;;;;;;;;;;16.40;82.90;;;16.71;52.08;98302.16;4926325;28;124565;-74
2023/03/30 03:04:11;;;;;;;;;;;16.40;83.70;;;16.69;52.69;98289.75;4928379;28;114261;-77
2023/03/30 03:06:38;;;;;;;;;;;16.40;84.00;;;16.67;52.79;98267.78;4927815;28;115698;-77
2023/03/30 03:09:07;;;;;;;;;;;16.40;84.50;;;16.66;52.92;98257.81;4928296;28;124407;-76
2023/03/30 03:11:33;;;;;;;;;;;16.40;84.60;;;16.65;53.30;98275.72;4932699;28;123333;-76
2023/03/30 03:14:02;;;;;;;;;;;16.40;85.10;;;16.62;53.79;98254.13;4930272;28;114040;-76
2023/03/30 03:16:31;;;;;;;;;;;16.40;85.50;;;16.59;53.76;98254.88;4933393;28;113230;-76
2023/03/30 03:18:59;;;;;;;;;;;16.40;85.80;;;16.56;54.28;98253.63;4928926;28;124127;-76
2023/03/30 03:21:25;;;;;;;;;;;16.30;86.50;;;16.53;54.44;98245.19;4908338;28;123159;-76
2023/03/30 03:23:52;;;;;;;;;;;16.30;86.80;;;16.49;54.86;98244.28;4931345;28;112631;-76
2023/03/30 03:26:19;;;;;;;;;;;16.30;86.90;;;16.48;55.20;98248.25;4929130;28;113668;-77
2023/03/30 03:28:48;;;;;;;;;;;16.30;87.70;;;16.45;55.45;98246.22;4931172;28;123557;-77
2023/03/30 03:31:14;;;;;;;;;;;16.20;88.00;;;16.41;55.54;98245.31;4928491;28;123989;-76
2023/03/30 03:33:40;;;;;;;;;;;16.20;88.60;;;16.37;55.57;98238.88;4923774;28;115148;-76
2023/03/30 03:36:07;;;;;;;;;;;16.20;88.50;;;16.33;56.04;98247.97;4928902;28;115232;-76
2023/03/30 03:38:35;;;;;;;;;;;16.10;88.70;;;16.31;55.81;98244.72;4930053;28;124174;-78
2023/03/30 03:41:01;;;;;;;;;;;16.10;88.80;;;16.30;55.95;98237.50;4933794;28;123143;-77
2023/03/30 03:43:27;;;;;;;;;;;16.10;89.30;;;16.28;56.26;98231.53;4916266;28;113387;-77
2023/03/30 03:45:55;;;;;;;;;;;16.10;89.30;;;16.25;56.10;98240.59;4929725;28;113602;-76
2023/03/30 03:48:25;;;;;;;;;;;16.10;89.50;;;16.22;56.30;98235.75;4928774;28;124018;-76
2023/03/30 03:50:54;;;;;;;;;;;16.00;89.40;;;16.19;56.46;98241.25;4914315;28;122871;-77
2023/03/30 03:53:20;;;;;;;;;;;16.00;89.90;;;16.16;56.62;98251.13;4915731;28;114655;-76
2023/03/30 03:55:47;;;;;;;;;;;16.00;90.10;;;16.14;56.55;98245.09;4928298;28;114442;-76
2023/03/30 03:58:15;;;;;;;;;;;16.00;90.10;;;16.13;57.03;98247.09;4930538;28;123920;-76
2023/03/30 04:00:41;;;;;;;;;;;15.90;90.20;;;16.12;56.83;98241.91;4930298;28;123690;-76
2023/03/30 04:03:12;;;;;;;;;;;15.90;90.30;;;16.12;56.90;98245.50;4911009;28;113432;-77
2023/03/30 04:05:41;;;;;;;;;;;15.90;90.40;;;16.11;56.90;98240.25;4934474;28;114226;-77
2023/03/30 04:08:11;;;;;;;;;;;15.90;90.50;;;16.10;57.01;98233.88;4934378;28;124154;-78
2023/03/30 04:10:40;;;;;;;;;;;15.90;90.50;;;16.09;56.98;98229.50;4930917;28;124058;-76
2023/03/30 04:13:06;;;;;;;;;;;15.90;90.70;;;16.06;57.23;98224.63;4930020;28;114401;-78
2023/03/30 04:15:33;;;;;;;;;;;15.80;90.80;;;16.05;57.32;98222.22;4931255;28;113876;-76
2023/03/30 04:18:00;;;;;;;;;;;15.80;90.90;;;16.01;57.31;98211.00;4928960;28;123997;-77
2023/03/30 04:20:29;;;;;;;;;;;15.80;91.00;;;16.01;57.47;98199.03;4923949;28;123892;-77
2023/03/30 04:22:56;;;;;;;;;;;15.70;91.20;;;15.99;57.57;98176.31;4922570;28;115326;-77
2023/03/30 04:25:27;;;;;;;;;;;15.70;91.20;;;16.00;57.64;98180.69;4927848;28;114469;-77
2023/03/30 04:27:54;;;;;;;;;;;15.70;91.20;;;16.02;57.48;98167.22;4925110;28;124208;-76
2023/03/30 04:30:23;;;;;;;;;;;15.80;91.20;;;16.04;57.69;98167.63;4928541;28;124038;-77
2023/03/30 04:33:04;;;;;;;;;;;15.80;91.30;;;16.04;57.39;98156.50;4927391;28;115004;-76
2023/03/30 04:35:33;;;;;;;;;;;15.80;91.30;;;16.02;57.67;98158.84;4932537;28;111806;-77
2023/03/30 04:38:00;;;;;;;;;;;15.70;91.50;;;15.98;57.48;98147.63;4908153;28;124118;-78
2023/03/30 04:40:27;;;;;;;;;;;15.70;91.50;;;15.98;57.67;98144.03;4927494;28;124325;-77
2023/03/30 04:42:53;;;;;;;;;;;15.70;91.80;;;16.00;57.52;98147.25;4927820;28;114452;-77
2023/03/30 04:45:22;;;;;;;;;;;15.70;91.60;;;16.02;57.40;98139.34;4919818;28;113820;-77
2023/03/30 04:47:48;;;;;;;;;;;15.70;91.50;;;16.03;57.78;98132.59;4930797;28;125514;-78
2023/03/30 04:50:14;;;;;;;;;;;15.70;91.50;;;16.04;57.50;98137.00;4913054;28;123804;-76
2023/03/30 04:52:41;;;;;;;;;;;15.70;91.50;;;16.05;57.45;98142.22;4930331;28;114461;-77
2023/03/30 04:55:08;;;;;;;;;;;15.80;91.60;;;16.04;57.66;98135.03;4931123;28;114168;-77
2023/03/30 04:57:35;;;;;;;;;;;15.80;91.60;;;16.02;57.59;98136.56;4931115;28;124401;-76
2023/03/30 05:00:04;;;;;;;;;;;15.70;91.60;;;16.02;57.90;98136.56;4931583;28;124534;-77
2023/03/30 05:02:31;;;;;;;;;;;15.70;91.70;;;16.01;57.82;98134.94;4925129;28;115576;-76
2023/03/30 05:04:57;;;;;;;;;;;15.70;91.70;;;16.01;57.86;98143.28;4924476;28;114019;-76
2023/03/30 05:07:24;;;;;;;;;;;15.70;91.80;;;16.01;57.98;98155.28;4927259;28;124323;-78
2023/03/30 05:10:40;;;;;;;;;;;15.70;91.90;;;15.99;58.21;98156.81;4929909;28;124004;-77
2023/03/30 05:13:07;;;;;;;;;;;15.70;92.10;;;15.94;58.48;98138.38;4925704;28;114621;-77
2023/03/30 05:15:42;;;;;;;;;;;15.60;92.20;;;15.94;58.37;98120.88;4933333;28;114589;-77
2023/03/30 05:18:08;;;;;;;;;;;15.20;92.10;;;15.92;58.49;98126.00;4934689;28;125013;-77
2023/03/30 05:20:35;;;;;;;;;;;15.60;92.50;;;15.90;58.73;98118.81;4931400;28;123019;-76
2023/03/30 05:23:06;;;;;;;;;;;15.60;92.50;;;15.91;58.71;98114.06;4928975;28;114392;-76
2023/03/30 05:25:33;;;;;;;;;;;15.60;92.50;;;15.92;58.63;98120.41;4929400;28;113605;-77
2023/03/30 05:28:05;;;;;;;;;;;15.60;92.60;;;15.92;58.58;98117.63;4939797;28;124119;-77
2023/03/30 05:30:31;;;;;;;;;;;15.60;92.60;;;15.90;58.64;98113.25;4913783;28;122859;-77
2023/03/30 05:32:57;;;;;;;;;;;15.50;92.60;;;15.90;58.63;98110.47;4913878;28;114500;-77
2023/03/30 05:35:24;;;;;;;;;;;15.60;92.50;;;15.94;58.40;98106.94;4931847;28;113730;-79
2023/03/30 05:37:54;;;;;;;;;;;15.60;92.50;;;15.96;58.45;98108.19;4931852;28;124372;-79
2023/03/30 05:40:20;;;;;;;;;;;15.60;92.50;;;15.99;58.30;98106.66;4934018;28;124097;-76
2023/03/30 05:42:46;;;;;;;;;;;15.60;92.50;;;15.98;57.96;98091.88;4930924;28;114458;-77
2023/03/30 05:45:13;;;;;;;;;;;15.60;92.50;;;16.00;58.08;98094.31;4917932;28;113912;-77
2023/03/30 05:47:39;;;;;;;;;;;15.60;92.50;;;16.02;58.39;98097.56;4894222;28;123627;-76
2023/03/30 05:50:08;;;;;;;;;;;15.60;92.60;;;16.04;58.35;98111.91;4919305;28;124504;-77
2023/03/30 05:52:34;;;;;;;;;;;15.70;92.60;;;16.05;58.12;98108.78;4920402;28;119489;-77
2023/03/30 05:55:05;;;;;;;;;;;15.70;92.60;;;16.05;58.08;98119.91;4928083;28;119106;-77
2023/03/30 05:57:32;;;;;;;;;;;15.70;92.60;;;16.07;58.18;98136.28;4927147;28;125813;-77
2023/03/30 05:59:59;;;;;;;;;;;15.70;92.60;;;16.07;58.34;98136.28;4927472;28;126249;-76
2023/03/30 06:02:26;;;;;;;;;;;15.70;92.60;;;16.05;58.43;98131.06;4926045;28;120615;-77
2023/03/30 06:04:52;;;;;;;;;;;15.70;92.70;;;16.05;58.57;98146.97;4910906;28;120218;-77
2023/03/30 06:07:19;;;;;;;;;;;15.70;92.80;;;16.04;58.59;98150.91;4928127;28;124517;-76
2023/03/30 06:09:48;;;;;;;;;;;15.60;92.80;;;16.04;58.63;98159.28;4923589;28;122870;-76
2023/03/30 06:12:15;;;;;;;;;;;15.60;92.90;;;16.01;58.59;98160.00;4928429;28;119790;-76
2023/03/30 06:14:41;;;;;;;;;;;15.60;92.80;;;16.02;58.50;98189.50;4928221;28;118712;-76
2023/03/30 06:17:22;;;;;;;;;;;15.70;93.00;;;16.01;58.68;98196.25;4908505;28;124441;-76
2023/03/30 06:19:51;;;;;;;;;;;15.70;93.10;;;15.99;58.97;98193.03;4922606;28;122803;-77
2023/03/30 06:22:17;;;;;;;;;;;15.60;93.10;;;15.99;59.24;98204.19;4927085;28;119411;-76
2023/03/30 06:24:46;;;;;;;;;;;14.10;92.50;;;15.98;59.39;98194.19;4914692;28;120142;-76
2023/03/30 06:27:21;;;;;;;;;;;15.10;93.00;;;15.99;59.17;98198.59;4905697;28;126075;-76
2023/03/30 06:29:48;;;;;;;;;;;15.70;93.30;;;15.98;59.02;98199.75;4896353;28;122388;-76
2023/03/30 06:32:14;;;;;;;;;;;15.70;93.30;;;16.00;59.34;98197.41;4924292;28;119511;-77
2023/03/30 06:34:41;;;;;;;;;;;15.70;93.70;;;16.01;59.31;98196.25;4909853;28;117900;-76
2023/03/30 06:37:07;;;;;;;;;;;15.70;93.40;;;16.04;59.65;98206.66;4929277;28;124109;-79
2023/03/30 06:39:36;;;;;;;;;;;15.70;93.50;;;16.03;59.54;98222.56;4928226;28;124268;-78
2023/03/30 06:42:05;;;;;;;;;;;15.70;93.50;;;16.02;59.40;98225.75;4930736;28;119794;-76
2023/03/30 06:44:33;;;;;;;;;;;15.70;93.50;;;15.99;59.36;98215.31;4922104;28;117848;-76
2023/03/30 06:47:00;;;;;;;;;;;15.70;93.40;;;15.97;59.58;98224.03;4916639;28;123901;-76
2023/03/30 06:49:47;;;;;;;;;;;15.70;93.40;;;15.98;59.08;98252.69;4916479;28;124026;-76
2023/03/30 06:52:15;;;;;;;;;;;15.70;93.30;;;15.98;59.16;98264.63;4939424;28;119924;-76
2023/03/30 06:54:42;;;;;;;;;;;15.70;93.30;;;16.02;59.11;98281.47;4910172;28;119022;-75
2023/03/30 06:57:11;;;;;;;;;;;15.70;93.30;;;16.03;58.93;98294.22;4925602;28;124550;-76
2023/03/30 06:59:37;;;;;;;;;;;15.70;93.20;;;16.03;58.39;98297.81;4927816;28;124052;-77
2023/03/30 07:02:03;;;;;;;;;;;15.70;93.10;;;16.05;58.38;98300.25;4927146;28;119494;-76
2023/03/30 07:04:30;;;;;;;;;;;15.70;93.00;;;16.05;58.25;98303.84;4928838;28;118854;-75
2023/03/30 07:06:59;;;;;;;;;;;15.80;93.00;;;16.04;58.42;98312.53;4944571;28;123475;-76
2023/03/30 07:09:25;;;;;;;;;;;15.70;92.90;;;16.02;58.57;98317.69;4927927;28;123407;-77
2023/03/30 07:11:51;;;;;;;;;;;15.70;93.10;;;15.99;58.86;98322.00;4921310;28;119454;-78
2023/03/30 07:14:21;;;;;;;;;;;15.70;93.20;;;15.99;59.35;98322.00;4926068;28;120181;-78
2023/03/30 07:16:51;;;;;;;;;;;15.70;93.30;;;16.00;59.82;98318.03;4927327;28;124128;-86
2023/03/30 07:22:42;;;;;;;;;;;15.70;94.00;;;15.94;61.28;98340.97;4923035;28;120314;-77
2023/03/30 07:25:09;;;;;;;;;;;15.70;94.50;;;15.90;61.79;98340.88;4922339;28;118960;-75
2023/03/30 07:27:36;;;;;;;;;;;15.60;94.80;;;15.85;62.06;98355.91;4926953;28;124437;-78
2023/03/30 07:30:08;;;;;;;;;;;15.60;95.00;;;15.80;62.46;98353.38;4925968;28;124320;-78
2023/03/30 07:32:37;;;;;;;;;;;15.60;95.20;;;15.75;62.74;98373.13;4920856;28;119603;-77
2023/03/30 07:35:07;;;;;;;;;;;15.50;95.40;;;15.70;62.63;98367.81;4925807;28;118645;-77
2023/03/30 07:37:38;;;;;;;;;;;15.50;95.50;;;15.65;63.58;98354.91;4926151;28;123925;-76
2023/03/30 07:40:09;;;;;;;;;;;15.50;95.90;;;15.61;63.92;98322.59;4927754;28;123974;-76
2023/03/30 07:42:36;;;;;;;;;;;15.40;96.10;;;15.57;63.92;98339.19;4918153;28;120510;-76
2023/03/30 07:45:06;;;;;;;;;;;15.40;96.10;;;15.55;64.09;98321.22;4926955;28;119703;-77
2023/03/30 07:47:32;;;;;;;;;;;15.30;96.00;;;15.55;63.93;98319.25;4914351;28;123205;-78
2023/03/30 07:49:58;;;;;;;;;;;15.30;96.10;;;15.54;63.97;98327.97;4926375;28;124541;-76
2023/03/30 07:52:25;;;;;;;;;;;15.30;96.10;;;15.52;64.05;98327.50;4924692;28;119371;-76
2023/03/30 07:54:55;;;;;;;5.83;2.70;;;15.30;96.10;;;15.50;64.10;98329.84;4925379;28;118757;-77
2023/03/30 07:57:22;;;;;;;11.73;3.73;;;15.30;96.30;;;15.47;63.92;98325.78;4929808;28;124159;-76
2023/03/30 07:59:48;;;;;;;7.97;2.70;;;15.30;96.20;;;15.44;63.84;98313.38;4930936;28;124046;-80
2023/03/30 08:02:16;;;;;;;6.13;2.87;;;15.20;96.10;;;15.46;64.01;98301.91;4924186;28;119405;-77
2023/03/30 08:04:43;;;;;;;;;;;15.30;96.20;;;15.51;63.73;98311.97;4910794;28;118156;-76
2023/03/30 08:07:16;;;;;;;5.60;2.90;;;15.30;96.20;;;15.55;63.73;98335.94;4924059;28;124170;-78
2023/03/30 08:09:44;;;;;;;4.90;2.83;;;15.30;96.20;;;15.56;63.59;98336.78;4909742;28;123103;-79
2023/03/30 08:12:13;;;;;;;8.63;3.13;;;15.30;96.10;;;15.58;63.65;98356.69;4925613;28;119358;-76
2023/03/30 08:14:39;;;;;;;11.90;3.20;;;15.30;96.10;;;15.60;63.76;98376.66;4927823;28;119464;-77
2023/03/30 08:17:06;;;;;;;6.30;2.65;;;15.30;96.20;;;15.59;63.79;98383.41;4911420;28;123051;-76
2023/03/30 08:19:32;;;;;;;;;;;15.30;96.20;;;15.59;63.59;98408.47;4924273;28;123867;-76
2023/03/30 08:22:00;;;;;;;8.60;2.73;;;15.30;96.20;;;15.56;63.81;98425.88;4931462;28;118753;-78
2023/03/30 08:24:27;;;;;;;5.87;2.27;;;15.30;96.30;;;15.51;63.96;98426.13;4929817;28;119051;-74
2023/03/30 08:26:54;;;;;;;5.70;2.45;;;15.30;96.40;;;15.46;64.15;98414.06;4920286;28;124038;-77
2023/03/30 08:29:25;;;;;;;8.80;2.37;;;15.20;96.50;;;15.42;64.20;98413.19;4927399;28;124261;-74
2023/03/30 08:31:51;;;;;;;2.60;1.93;;;15.20;96.50;;;15.38;64.41;98409.47;4937856;28;120616;-75
2023/03/30 08:34:21;;;;;;;7.43;3.20;;;15.20;96.60;;;15.34;64.46;98380.75;4928900;28;119851;-73
2023/03/30 08:36:51;;;;;;;14.67;2.07;;;15.10;96.60;;;15.33;64.68;98381.88;4931655;28;124208;-74
2023/03/30 08:39:18;;;;;;;6.50;2.30;;;15.30;96.80;;;15.36;64.67;98392.31;4929404;28;123767;-75
2023/03/30 08:42:00;;;;;;;6.00;2.47;;;15.10;96.70;;;15.37;64.33;98388.38;4928056;28;119299;-74
2023/03/30 08:44:38;;;;;;;;;;;15.10;96.60;;;15.37;64.40;98385.59;4922363;28;119058;-78
2023/03/30 08:47:15;;;;;;;;;;;15.10;96.60;;;15.38;64.24;98376.06;4929595;28;123009;-74
2023/03/30 08:49:50;;;;;;;;;;;15.10;96.60;;;15.38;64.29;98358.56;4928497;28;124637;-75
2023/03/30 08:52:21;;;;;;;;;;;15.10;96.60;;;15.38;64.38;98350.22;4933267;28;119274;-75
2023/03/30 08:54:50;;;;;;;;;;;15.10;96.70;;;15.36;64.30;98358.91;4930575;28;119009;-76
2023/03/30 08:57:28;;;;;;;;;;;15.10;96.60;;;15.41;64.33;98352.28;4929864;28;123939;-77
2023/03/30 09:00:12;;;;;;;;;;;15.10;96.70;;;15.43;64.16;98342.41;4929031;28;124179;-74
2023/03/30 09:02:45;;;;;;;;;;;15.10;96.70;;;15.45;64.21;98326.16;4928449;28;118941;-77
2023/03/30 09:05:17;;;;;;;;;;;15.20;96.70;;;15.50;64.20;98335.41;4930257;28;96862;-75
2023/03/30 09:07:55;;;;;;;;;;;15.20;96.80;;;15.52;64.19;98319.97;4932586;28;123840;-74
2023/03/30 09:10:21;;;;;;;;;;;15.20;96.80;;;15.53;64.09;98318.81;4939662;28;123780;-74
2023/03/30 09:12:56;;;;;;;;;;;15.20;96.80;;;15.56;63.91;98309.75;4942220;28;119320;-75
2023/03/30 09:15:35;;;;;;;;;;;15.20;96.80;;;15.59;64.04;98311.81;4931551;28;118404;-74
2023/03/30 09:18:16;;;;;;;;;;;15.30;96.80;;;15.59;63.75;98302.66;4919779;28;124835;-75
2023/03/30 09:20:43;;;;;;;;;;;15.30;96.80;;;15.61;63.84;98314.25;4930624;28;123659;-75
2023/03/30 09:23:16;;;;;;;;;;;15.30;96.90;;;15.58;63.36;98296.28;4927758;28;120449;-74
2023/03/30 09:25:57;;;;;;;;;;;15.20;96.60;;;15.55;63.24;98296.16;4924213;28;120056;-75
2023/03/30 09:28:23;;;;;;;;;;;15.20;96.50;;;15.51;63.03;98301.66;4941183;28;123816;-74
2023/03/30 09:31:01;;;;;;;;;;;15.20;96.30;;;15.49;62.94;98308.75;4924297;28;123053;-75
2023/03/30 09:33:57;;;;;;;;;;;15.20;96.20;;;15.46;62.65;98297.13;4931264;28;118909;-75
2023/03/30 09:36:38;;;;;;;;;;;15.10;96.10;;;15.43;62.52;98317.34;4923387;28;118901;-75
2023/03/30 09:39:11;;;;;;;;;;;15.10;96.00;;;15.43;62.40;98311.78;4922393;28;124768;-75
2023/03/30 09:41:50;;;;;;;;;;;15.10;95.90;;;15.42;62.19;98326.88;4909434;28;123055;-74
2023/03/30 09:45:18;;;;;;;;;;;15.10;95.80;;;15.39;61.81;98333.16;4909581;28;118946;-75
2023/03/30 09:47:45;;;;;;;3.97;2.20;;;15.10;95.70;;;15.39;61.86;98349.03;4899561;28;118745;-75
2023/03/30 09:50:20;;;;;;;2.83;1.63;;;15.10;95.70;;;15.39;61.78;98361.00;4897237;28;124067;-74
2023/03/30 09:53:28;;;;;;;6.17;2.20;;;15.10;95.60;;;15.35;61.80;98364.84;4906175;28;124005;-75
2023/03/30 09:56:00;;;;;;;5.70;2.27;;;15.10;95.50;;;15.35;61.77;98357.28;4900880;28;119577;-75
2023/03/30 09:58:32;;;;;;;8.70;2.50;;;15.10;95.50;;;15.34;61.74;98364.03;4909777;28;119267;-75
2023/03/30 10:01:07;;;;;;;6.00;2.40;;;15.10;95.50;;;15.36;61.47;98377.59;4903716;28;124203;-75
2023/03/30 10:03:34;;;;;;;4.67;2.40;;;15.10;95.40;;;15.36;61.43;98374.78;4923607;28;123846;-74
2023/03/30 10:06:06;;;;;;;8.03;2.07;;;15.10;95.30;;;15.37;61.31;98365.31;4894846;28;119316;-76
2023/03/30 10:08:56;;;;;;;4.40;2.20;;;15.10;95.30;;;15.37;61.53;98368.88;4929856;28;119134;-75
2023/03/30 10:11:40;;;;;;;6.90;2.30;;;15.10;95.30;;;15.43;61.43;98361.09;4922105;28;123827;-74
2023/03/30 10:14:27;;;;;;;4.67;2.00;;;15.10;95.40;;;15.46;61.45;98371.50;4928403;28;123937;-77
2023/03/30 10:16:57;;;;;;;3.13;1.90;;;15.10;95.40;;;15.55;61.23;98357.41;4943430;28;119828;-74
2023/03/30 10:19:28;;;;;;;6.63;2.70;;;15.20;95.40;;;15.59;61.29;98363.91;4917830;28;119419;-74
2023/03/30 10:21:58;;;;;;;3.00;2.20;;;15.20;95.40;;;15.62;61.17;98363.19;4923119;28;124038;-75
2023/03/30 10:24:30;;;;;;;;;;;15.30;95.30;;;15.67;61.21;98349.81;4924231;28;124052;-73
2023/03/30 10:27:09;;;;;;;;;;;15.30;95.30;;;15.74;61.11;98345.63;4919638;28;119340;-74
2023/03/30 10:29:35;;;;;;;;;;;15.30;95.20;;;15.79;60.78;98343.38;4922002;28;119414;-74
2023/03/30 10:32:07;;;;;;;;;;;15.40;95.20;;;15.83;60.45;98349.06;4918471;28;124240;-74
2023/03/30 10:34:37;;;;;;;;;;;15.40;95.10;;;15.86;60.57;98340.78;4926173;28;124482;-74
2023/03/30 10:37:08;;;;;;;;;;;15.40;95.00;;;15.87;60.44;98325.66;4923436;28;119156;-77
2023/03/30 10:39:41;;;;;;;;;;;15.50;95.00;;;15.89;60.16;98323.34;4918621;28;118520;-75
2023/03/30 10:42:12;;;;;;;;;;;16.60;95.30;;;15.93;60.26;98325.41;4902381;28;123960;-73
2023/03/30 10:44:45;;;;;;;;;;;15.60;94.90;;;15.97;60.23;98329.91;4902813;28;123696;-73
2023/03/30 10:48:11;;;;;;;6.90;2.70;;;15.60;94.90;;;16.01;60.51;98335.56;4928556;28;119308;-75
2023/03/30 10:51:00;;;;;;;5.93;2.50;;;15.60;95.00;;;16.09;60.33;98326.22;4924971;28;119591;-75
2023/03/30 10:53:47;;;;;;;3.90;2.60;;;15.70;95.00;;;16.13;60.19;98329.91;4919469;28;123761;-75
2023/03/30 10:56:25;;;;;;;3.97;2.50;;;15.70;95.00;;;16.15;59.94;98322.00;4923795;28;124128;-73
2023/03/30 10:59:37;;;;;;;9.13;2.50;;;15.70;94.90;;;16.13;59.46;98321.53;4924872;28;119338;-75
2023/03/30 11:02:29;;;;;;;8.40;2.17;;;15.70;94.60;;;16.14;59.56;98306.44;4924080;28;118566;-74
2023/03/30 11:05:15;;;;;;;12.20;2.60;;;15.70;94.50;;;16.17;59.67;98305.69;4924684;28;124043;-75
2023/03/30 11:08:16;;;;;;;9.03;2.80;;;15.80;94.70;;;16.21;59.78;98298.25;4924403;28;123082;-75
2023/03/30 11:10:47;;;;;;;3.83;2.50;;;15.80;94.80;;;16.27;59.83;98299.56;4911882;28;120466;-76
2023/03/30 11:13:31;;;;;;;4.43;2.50;;;15.80;94.80;;;16.29;59.70;98327.09;4925049;28;119104;-75
2023/03/30 11:16:18;;;;;;;7.70;2.47;;;16.00;94.80;;;16.33;59.47;98320.44;4920342;28;124860;-74
2023/03/30 11:18:58;;;;;;;9.40;2.70;;;15.90;94.60;;;16.37;59.30;98336.44;4920759;28;123920;-76
2023/03/30 11:21:49;;;;;;;10.07;2.80;;;15.90;94.50;;;16.39;59.19;98326.56;4922584;28;119259;-73
2023/03/30 11:24:26;;;;;;;7.27;3.27;;;16.00;94.40;;;16.45;59.19;98339.03;4919578;28;119070;-75
2023/03/30 11:27:23;;;;;;;2.43;2.10;;;16.00;94.40;;;16.51;59.24;98326.41;4912210;28;123826;-75